This is the latest recevied weather packets stored in our database for station/object W4OA. If no packets are shown the sender has not sent any weather packets the latest 10 day(s).
| Time | Temp. | Humidity | Pressure | Rain* | Wind** | Luminosity | Snow |
|---|---|---|---|---|---|---|---|
| 1777655099 | 19.44° C | 64% | 1008 hPa | 0 mm | - | 0 W/m² | - |
| 1777653299 | 18.33° C | 71% | 1008 hPa | 0 mm | - | 0 W/m² | - |
| 1777652098 | 18.33° C | 74% | 1008 hPa | 0 mm | - | 0 W/m² | - |
| 1777651799 | 18.33° C | 72% | 1008 hPa | 0 mm | - | 0 W/m² | - |
| 1777650898 | 18.33° C | 70% | 1008 hPa | 0 mm | - | 0 W/m² | - |
| 1777650313 | 18.33° C | 70% | 1008 hPa | 0 mm | - | 0 W/m² | - |
| 1777649998 | 18.33° C | 73% | 1008 hPa | 0 mm | - | 0 W/m² | - |
| 1777649699 | 17.78° C | 69% | 1008 hPa | 0 mm | - | 0 W/m² | - |
| 1777649398 | 17.78° C | 70% | 1008 hPa | 0 mm | - | 0 W/m² | - |
| 1777649098 | 17.78° C | 69% | 1008 hPa | 0 mm | - | 0 W/m² | - |
| 1777648799 | 17.78° C | 69% | 1008 hPa | 0 mm | - | 0 W/m² | - |
| 1777648498 | 17.78° C | 68% | 1008 hPa | 0 mm | - | 0 W/m² | - |
| 1777648200 | 17.78° C | 70% | 1008 hPa | 0 mm | - | 0 W/m² | - |
| 1777647898 | 18.33° C | 67% | 1007 hPa | 0 mm | - | 0 W/m² | - |
| 1777646999 | 17.22° C | 73% | 1007 hPa | 0 mm | - | 0 W/m² | - |
| 1777646698 | 16.67° C | 74% | 1007 hPa | 0 mm | - | 0 W/m² | - |
| 1777646399 | 16.67° C | 73% | 1007 hPa | 0 mm | - | 0 W/m² | - |
| 1777646098 | 16.67° C | 75% | 1008 hPa | 0 mm | - | 0 W/m² | - |
| 1777645798 | 16.67° C | 75% | 1007 hPa | 0 mm | - | 0 W/m² | - |
| 1777645499 | 16.67° C | 77% | 1007 hPa | 0 mm | - | 0 W/m² | - |
| 1777645199 | 16.67° C | 77% | 1007 hPa | 0 mm | - | 0 W/m² | - |
| 1777644898 | 16.11° C | 79% | 1007 hPa | 0 mm | - | 0 W/m² | - |
| 1777644598 | 15.56° C | 80% | 1007 hPa | 0 mm | - | 0 W/m² | - |
| 1777644298 | 15.56° C | 82% | 1007 hPa | 0 mm | - | 0 W/m² | - |
| 1777643998 | 15° C | 83% | 1007 hPa | 0 mm | - | 0 W/m² | - |
* Rain latest hour (hover to see other rain measurements)
** Current wind speed in m/s (hover to see current wind gust speed)